Terminal Aerodrome Forecast
Issued by NWS Grand Junction, CO

Home | Current Version | Previous Version | Text Only | Print | Product List | Glossary On
Versions: 1 2 3 4 5 6 7 8 9 10 11 12 13 14 15 16 17 18 19 20 21 22 23 24 25 26 27 28
000
FTUS45 KGJT 252333
TAFGJT
TAF
KGJT 252333Z 2600/2624 29008KT P6SM SKC
     FM260400 04006KT P6SM SKC
     FM260800 08009KT P6SM SKC
     FM261600 11007KT P6SM SKC
     FM261900 19006KT P6SM SKC=

USA.gov is the U.S. government's official web portal to all federal, state and local government web resources and services.